sensor_id;sensor_type;location;lat;lon;timestamp;P1;P2;P0
42410;PMS5003;28056;51.112;0.984;2024-03-02T00:00:37;1;1;
42410;PMS5003;28056;51.112;0.984;2024-03-02T00:03:05;4;1;
42410;PMS5003;28056;51.112;0.984;2024-03-02T00:05:34;1;1;
42410;PMS5003;28056;51.112;0.984;2024-03-02T00:08:02;1;1;
42410;PMS5003;28056;51.112;0.984;2024-03-02T00:10:36;0;0;
42410;PMS5003;28056;51.112;0.984;2024-03-02T00:13:05;1;1;
42410;PMS5003;28056;51.112;0.984;2024-03-02T00:15:39;1;1;
42410;PMS5003;28056;51.112;0.984;2024-03-02T00:18:10;1;0;
42410;PMS5003;28056;51.112;0.984;2024-03-02T00:20:38;1;1;
42410;PMS5003;28056;51.112;0.984;2024-03-02T00:23:07;0;0;
42410;PMS5003;28056;51.112;0.984;2024-03-02T00:25:36;2;0;
42410;PMS5003;28056;51.112;0.984;2024-03-02T00:28:05;4;1;
42410;PMS5003;28056;51.112;0.984;2024-03-02T00:30:43;2;2;
42410;PMS5003;28056;51.112;0.984;2024-03-02T00:33:21;2;2;
42410;PMS5003;28056;51.112;0.984;2024-03-02T00:35:49;1;1;
42410;PMS5003;28056;51.112;0.984;2024-03-02T00:38:17;1;1;
42410;PMS5003;28056;51.112;0.984;2024-03-02T00:40:45;0;0;
42410;PMS5003;28056;51.112;0.984;2024-03-02T00:43:19;2;0;
42410;PMS5003;28056;51.112;0.984;2024-03-02T00:46:07;1;1;
42410;PMS5003;28056;51.112;0.984;2024-03-02T00:48:35;2;2;
42410;PMS5003;28056;51.112;0.984;2024-03-02T00:51:03;0;0;
42410;PMS5003;28056;51.112;0.984;2024-03-02T00:53:31;1;1;
42410;PMS5003;28056;51.112;0.984;2024-03-02T00:55:59;1;1;
42410;PMS5003;28056;51.112;0.984;2024-03-02T00:58:28;1;1;
42410;PMS5003;28056;51.112;0.984;2024-03-02T01:00:55;1;1;
42410;PMS5003;28056;51.112;0.984;2024-03-02T01:04:53;0;0;
42410;PMS5003;28056;51.112;0.984;2024-03-02T01:07:20;1;1;
42410;PMS5003;28056;51.112;0.984;2024-03-02T01:09:47;0;0;
42410;PMS5003;28056;51.112;0.984;2024-03-02T01:12:14;0;0;
42410;PMS5003;28056;51.112;0.984;2024-03-02T01:14:42;1;1;
42410;PMS5003;28056;51.112;0.984;2024-03-02T01:17:09;1;1;
42410;PMS5003;28056;51.112;0.984;2024-03-02T01:19:36;1;1;
42410;PMS5003;28056;51.112;0.984;2024-03-02T01:22:04;0;0;
42410;PMS5003;28056;51.112;0.984;2024-03-02T01:24:31;1;1;
42410;PMS5003;28056;51.112;0.984;2024-03-02T01:26:58;2;1;
42410;PMS5003;28056;51.112;0.984;2024-03-02T01:29:25;2;2;
42410;PMS5003;28056;51.112;0.984;2024-03-02T01:31:53;1;0;
42410;PMS5003;28056;51.112;0.984;2024-03-02T01:34:19;1;1;
42410;PMS5003;28056;51.112;0.984;2024-03-02T01:36:47;0;0;
42410;PMS5003;28056;51.112;0.984;2024-03-02T01:39:14;5;2;
42410;PMS5003;28056;51.112;0.984;2024-03-02T01:41:41;4;0;
42410;PMS5003;28056;51.112;0.984;2024-03-02T01:44:08;1;1;
42410;PMS5003;28056;51.112;0.984;2024-03-02T01:46:35;0;0;
42410;PMS5003;28056;51.112;0.984;2024-03-02T01:49:02;4;1;
42410;PMS5003;28056;51.112;0.984;2024-03-02T01:51:29;1;1;
42410;PMS5003;28056;51.112;0.984;2024-03-02T01:53:56;2;1;
42410;PMS5003;28056;51.112;0.984;2024-03-02T01:56:23;0;0;
42410;PMS5003;28056;51.112;0.984;2024-03-02T01:58:50;1;1;
42410;PMS5003;28056;51.112;0.984;2024-03-02T02:01:17;0;0;
42410;PMS5003;28056;51.112;0.984;2024-03-02T02:03:44;1;1;
42410;PMS5003;28056;51.112;0.984;2024-03-02T02:06:11;1;1;
42410;PMS5003;28056;51.112;0.984;2024-03-02T02:08:39;4;2;
42410;PMS5003;28056;51.112;0.984;2024-03-02T02:11:06;2;2;
42410;PMS5003;28056;51.112;0.984;2024-03-02T02:13:35;2;2;
42410;PMS5003;28056;51.112;0.984;2024-03-02T02:16:05;5;2;
42410;PMS5003;28056;51.112;0.984;2024-03-02T02:18:33;1;1;
42410;PMS5003;28056;51.112;0.984;2024-03-02T02:21:02;4;0;
42410;PMS5003;28056;51.112;0.984;2024-03-02T02:23:29;2;2;
42410;PMS5003;28056;51.112;0.984;2024-03-02T02:25:56;4;2;
42410;PMS5003;28056;51.112;0.984;2024-03-02T02:28:24;2;2;
42410;PMS5003;28056;51.112;0.984;2024-03-02T02:30:52;1;1;
42410;PMS5003;28056;51.112;0.984;2024-03-02T02:33:22;2;2;
42410;PMS5003;28056;51.112;0.984;2024-03-02T02:35:49;2;2;
42410;PMS5003;28056;51.112;0.984;2024-03-02T02:38:17;5;1;
42410;PMS5003;28056;51.112;0.984;2024-03-02T02:40:44;1;1;
42410;PMS5003;28056;51.112;0.984;2024-03-02T02:43:11;4;1;
42410;PMS5003;28056;51.112;0.984;2024-03-02T02:45:38;1;1;
42410;PMS5003;28056;51.112;0.984;2024-03-02T02:48:06;5;1;
42410;PMS5003;28056;51.112;0.984;2024-03-02T02:50:33;5;2;
42410;PMS5003;28056;51.112;0.984;2024-03-02T02:53:01;1;1;
42410;PMS5003;28056;51.112;0.984;2024-03-02T02:55:28;1;1;
42410;PMS5003;28056;51.112;0.984;2024-03-02T02:57:55;1;1;
42410;PMS5003;28056;51.112;0.984;2024-03-02T03:00:23;0;0;
42410;PMS5003;28056;51.112;0.984;2024-03-02T03:02:49;2;1;
42410;PMS5003;28056;51.112;0.984;2024-03-02T03:05:17;4;2;
42410;PMS5003;28056;51.112;0.984;2024-03-02T03:07:44;1;1;
42410;PMS5003;28056;51.112;0.984;2024-03-02T03:10:11;2;1;
42410;PMS5003;28056;51.112;0.984;2024-03-02T03:12:39;2;2;
42410;PMS5003;28056;51.112;0.984;2024-03-02T03:15:07;6;2;
42410;PMS5003;28056;51.112;0.984;2024-03-02T03:17:35;1;1;
42410;PMS5003;28056;51.112;0.984;2024-03-02T03:20:03;0;0;
42410;PMS5003;28056;51.112;0.984;2024-03-02T03:22:31;0;0;
42410;PMS5003;28056;51.112;0.984;2024-03-02T03:24:58;4;1;
42410;PMS5003;28056;51.112;0.984;2024-03-02T03:27:25;1;1;
42410;PMS5003;28056;51.112;0.984;2024-03-02T03:29:53;4;2;
42410;PMS5003;28056;51.112;0.984;2024-03-02T03:32:20;4;2;
42410;PMS5003;28056;51.112;0.984;2024-03-02T03:34:47;1;1;
42410;PMS5003;28056;51.112;0.984;2024-03-02T03:37:15;1;1;
42410;PMS5003;28056;51.112;0.984;2024-03-02T03:39:42;0;0;
42410;PMS5003;28056;51.112;0.984;2024-03-02T03:42:09;2;2;
42410;PMS5003;28056;51.112;0.984;2024-03-02T03:44:36;2;2;
42410;PMS5003;28056;51.112;0.984;2024-03-02T03:47:03;5;1;
42410;PMS5003;28056;51.112;0.984;2024-03-02T03:49:31;2;2;
42410;PMS5003;28056;51.112;0.984;2024-03-02T03:51:58;5;2;
42410;PMS5003;28056;51.112;0.984;2024-03-02T03:54:26;1;1;
42410;PMS5003;28056;51.112;0.984;2024-03-02T03:56:53;1;1;
42410;PMS5003;28056;51.112;0.984;2024-03-02T03:59:20;1;1;
42410;PMS5003;28056;51.112;0.984;2024-03-02T04:01:47;4;1;
42410;PMS5003;28056;51.112;0.984;2024-03-02T04:04:14;8;2;
42410;PMS5003;28056;51.112;0.984;2024-03-02T04:06:42;4;1;
42410;PMS5003;28056;51.112;0.984;2024-03-02T04:09:10;0;0;
42410;PMS5003;28056;51.112;0.984;2024-03-02T04:11:37;0;0;
42410;PMS5003;28056;51.112;0.984;2024-03-02T04:14:04;2;2;
42410;PMS5003;28056;51.112;0.984;2024-03-02T04:16:31;1;0;
42410;PMS5003;28056;51.112;0.984;2024-03-02T04:18:58;2;1;
42410;PMS5003;28056;51.112;0.984;2024-03-02T04:21:25;2;1;
42410;PMS5003;28056;51.112;0.984;2024-03-02T04:23:52;2;1;
42410;PMS5003;28056;51.112;0.984;2024-03-02T04:26:19;2;1;
42410;PMS5003;28056;51.112;0.984;2024-03-02T04:28:46;4;1;
42410;PMS5003;28056;51.112;0.984;2024-03-02T04:31:13;9;2;
42410;PMS5003;28056;51.112;0.984;2024-03-02T04:33:41;1;1;
42410;PMS5003;28056;51.112;0.984;2024-03-02T04:36:08;1;1;
42410;PMS5003;28056;51.112;0.984;2024-03-02T04:38:36;0;0;
42410;PMS5003;28056;51.112;0.984;2024-03-02T04:41:03;1;1;
42410;PMS5003;28056;51.112;0.984;2024-03-02T04:43:31;2;1;
42410;PMS5003;28056;51.112;0.984;2024-03-02T04:45:58;4;1;
42410;PMS5003;28056;51.112;0.984;2024-03-02T04:48:26;2;1;
42410;PMS5003;28056;51.112;0.984;2024-03-02T04:50:53;5;2;
42410;PMS5003;28056;51.112;0.984;2024-03-02T04:53:20;5;2;
42410;PMS5003;28056;51.112;0.984;2024-03-02T04:55:47;1;1;
42410;PMS5003;28056;51.112;0.984;2024-03-02T04:58:14;2;2;
42410;PMS5003;28056;51.112;0.984;2024-03-02T05:00:42;1;1;
42410;PMS5003;28056;51.112;0.984;2024-03-02T05:03:09;1;1;
42410;PMS5003;28056;51.112;0.984;2024-03-02T05:05:36;2;1;
42410;PMS5003;28056;51.112;0.984;2024-03-02T05:08:04;1;1;
42410;PMS5003;28056;51.112;0.984;2024-03-02T05:10:31;3;1;
42410;PMS5003;28056;51.112;0.984;2024-03-02T05:12:58;1;1;
42410;PMS5003;28056;51.112;0.984;2024-03-02T05:15:25;1;1;
42410;PMS5003;28056;51.112;0.984;2024-03-02T05:17:53;2;1;
42410;PMS5003;28056;51.112;0.984;2024-03-02T05:20:20;1;1;
42410;PMS5003;28056;51.112;0.984;2024-03-02T05:22:47;5;4;
42410;PMS5003;28056;51.112;0.984;2024-03-02T05:25:14;1;1;
42410;PMS5003;28056;51.112;0.984;2024-03-02T05:27:42;4;0;
42410;PMS5003;28056;51.112;0.984;2024-03-02T05:30:09;0;0;
42410;PMS5003;28056;51.112;0.984;2024-03-02T05:32:37;1;1;
42410;PMS5003;28056;51.112;0.984;2024-03-02T05:35:04;0;0;
42410;PMS5003;28056;51.112;0.984;2024-03-02T05:37:32;2;2;
42410;PMS5003;28056;51.112;0.984;2024-03-02T05:40:00;1;1;
42410;PMS5003;28056;51.112;0.984;2024-03-02T05:42:27;2;1;
42410;PMS5003;28056;51.112;0.984;2024-03-02T05:44:55;0;0;
42410;PMS5003;28056;51.112;0.984;2024-03-02T05:47:22;1;1;
42410;PMS5003;28056;51.112;0.984;2024-03-02T05:49:49;1;1;
42410;PMS5003;28056;51.112;0.984;2024-03-02T05:52:16;2;1;
42410;PMS5003;28056;51.112;0.984;2024-03-02T05:54:43;2;2;
42410;PMS5003;28056;51.112;0.984;2024-03-02T05:57:10;1;1;
42410;PMS5003;28056;51.112;0.984;2024-03-02T05:59:37;1;1;
42410;PMS5003;28056;51.112;0.984;2024-03-02T06:02:04;1;1;
42410;PMS5003;28056;51.112;0.984;2024-03-02T06:04:31;3;1;
42410;PMS5003;28056;51.112;0.984;2024-03-02T06:06:58;3;3;
42410;PMS5003;28056;51.112;0.984;2024-03-02T06:09:25;1;1;
42410;PMS5003;28056;51.112;0.984;2024-03-02T06:11:52;5;2;
42410;PMS5003;28056;51.112;0.984;2024-03-02T06:14:19;1;1;
42410;PMS5003;28056;51.112;0.984;2024-03-02T06:16:46;5;2;
42410;PMS5003;28056;51.112;0.984;2024-03-02T06:19:13;2;0;
42410;PMS5003;28056;51.112;0.984;2024-03-02T06:21:40;0;0;
42410;PMS5003;28056;51.112;0.984;2024-03-02T06:24:07;6;5;
42410;PMS5003;28056;51.112;0.984;2024-03-02T06:26:34;2;1;
42410;PMS5003;28056;51.112;0.984;2024-03-02T06:29:01;0;0;
42410;PMS5003;28056;51.112;0.984;2024-03-02T06:31:28;1;1;
42410;PMS5003;28056;51.112;0.984;2024-03-02T06:33:55;5;1;
42410;PMS5003;28056;51.112;0.984;2024-03-02T06:36:22;3;1;
42410;PMS5003;28056;51.112;0.984;2024-03-02T06:38:49;2;1;
42410;PMS5003;28056;51.112;0.984;2024-03-02T06:41:16;2;0;
42410;PMS5003;28056;51.112;0.984;2024-03-02T06:43:44;5;4;
42410;PMS5003;28056;51.112;0.984;2024-03-02T06:46:11;1;1;
42410;PMS5003;28056;51.112;0.984;2024-03-02T06:48:38;4;4;
42410;PMS5003;28056;51.112;0.984;2024-03-02T06:51:06;8;5;
42410;PMS5003;28056;51.112;0.984;2024-03-02T06:53:33;5;5;
42410;PMS5003;28056;51.112;0.984;2024-03-02T06:56:01;5;2;
42410;PMS5003;28056;51.112;0.984;2024-03-02T06:58:29;1;0;
42410;PMS5003;28056;51.112;0.984;2024-03-02T07:00:56;2;2;
42410;PMS5003;28056;51.112;0.984;2024-03-02T07:03:23;5;5;
42410;PMS5003;28056;51.112;0.984;2024-03-02T07:05:50;4;1;
42410;PMS5003;28056;51.112;0.984;2024-03-02T07:08:17;2;0;
42410;PMS5003;28056;51.112;0.984;2024-03-02T07:10:44;2;2;
42410;PMS5003;28056;51.112;0.984;2024-03-02T07:13:11;2;1;
42410;PMS5003;28056;51.112;0.984;2024-03-02T07:15:38;5;1;
42410;PMS5003;28056;51.112;0.984;2024-03-02T07:18:05;4;2;
42410;PMS5003;28056;51.112;0.984;2024-03-02T07:20:32;2;2;
42410;PMS5003;28056;51.112;0.984;2024-03-02T07:22:59;2;2;
42410;PMS5003;28056;51.112;0.984;2024-03-02T07:25:26;6;4;
42410;PMS5003;28056;51.112;0.984;2024-03-02T07:27:54;2;2;
42410;PMS5003;28056;51.112;0.984;2024-03-02T07:30:21;1;1;
42410;PMS5003;28056;51.112;0.984;2024-03-02T07:32:49;2;1;
42410;PMS5003;28056;51.112;0.984;2024-03-02T07:35:17;4;1;
42410;PMS5003;28056;51.112;0.984;2024-03-02T07:37:44;2;2;
42410;PMS5003;28056;51.112;0.984;2024-03-02T07:40:11;5;2;
42410;PMS5003;28056;51.112;0.984;2024-03-02T07:42:39;4;1;
42410;PMS5003;28056;51.112;0.984;2024-03-02T07:45:07;4;4;
42410;PMS5003;28056;51.112;0.984;2024-03-02T07:47:35;2;0;
42410;PMS5003;28056;51.112;0.984;2024-03-02T07:50:03;1;1;
42410;PMS5003;28056;51.112;0.984;2024-03-02T07:52:31;1;1;
42410;PMS5003;28056;51.112;0.984;2024-03-02T07:54:59;1;0;
42410;PMS5003;28056;51.112;0.984;2024-03-02T07:57:26;2;0;
42410;PMS5003;28056;51.112;0.984;2024-03-02T07:59:53;2;1;
42410;PMS5003;28056;51.112;0.984;2024-03-02T08:02:20;5;3;
42410;PMS5003;28056;51.112;0.984;2024-03-02T08:04:48;1;0;
42410;PMS5003;28056;51.112;0.984;2024-03-02T08:07:14;1;1;
42410;PMS5003;28056;51.112;0.984;2024-03-02T08:09:42;4;2;
42410;PMS5003;28056;51.112;0.984;2024-03-02T08:12:09;6;4;
42410;PMS5003;28056;51.112;0.984;2024-03-02T08:14:36;2;0;
42410;PMS5003;28056;51.112;0.984;2024-03-02T08:17:03;5;2;
42410;PMS5003;28056;51.112;0.984;2024-03-02T08:19:30;3;1;
42410;PMS5003;28056;51.112;0.984;2024-03-02T08:21:58;5;2;
42410;PMS5003;28056;51.112;0.984;2024-03-02T08:24:25;2;2;
42410;PMS5003;28056;51.112;0.984;2024-03-02T08:26:52;3;3;
42410;PMS5003;28056;51.112;0.984;2024-03-02T08:29:19;5;3;
42410;PMS5003;28056;51.112;0.984;2024-03-02T08:31:46;1;1;
42410;PMS5003;28056;51.112;0.984;2024-03-02T08:34:13;0;0;
42410;PMS5003;28056;51.112;0.984;2024-03-02T08:36:41;6;2;
42410;PMS5003;28056;51.112;0.984;2024-03-02T08:39:08;3;3;
42410;PMS5003;28056;51.112;0.984;2024-03-02T08:41:35;1;1;
42410;PMS5003;28056;51.112;0.984;2024-03-02T08:44:03;1;1;
42410;PMS5003;28056;51.112;0.984;2024-03-02T08:46:30;1;1;
42410;PMS5003;28056;51.112;0.984;2024-03-02T08:48:57;3;2;
42410;PMS5003;28056;51.112;0.984;2024-03-02T08:51:25;4;1;
42410;PMS5003;28056;51.112;0.984;2024-03-02T08:53:52;1;1;
42410;PMS5003;28056;51.112;0.984;2024-03-02T08:56:19;2;2;
42410;PMS5003;28056;51.112;0.984;2024-03-02T08:58:46;1;1;
42410;PMS5003;28056;51.112;0.984;2024-03-02T09:01:13;1;1;
42410;PMS5003;28056;51.112;0.984;2024-03-02T09:03:41;1;1;
42410;PMS5003;28056;51.112;0.984;2024-03-02T09:06:08;3;2;
42410;PMS5003;28056;51.112;0.984;2024-03-02T09:08:35;7;2;
42410;PMS5003;28056;51.112;0.984;2024-03-02T09:11:02;3;3;
42410;PMS5003;28056;51.112;0.984;2024-03-02T09:13:31;5;2;
42410;PMS5003;28056;51.112;0.984;2024-03-02T09:15:59;1;1;
42410;PMS5003;28056;51.112;0.984;2024-03-02T09:18:27;3;2;
42410;PMS5003;28056;51.112;0.984;2024-03-02T09:20:54;1;1;
42410;PMS5003;28056;51.112;0.984;2024-03-02T09:23:21;0;0;
42410;PMS5003;28056;51.112;0.984;2024-03-02T09:25:48;1;1;
42410;PMS5003;28056;51.112;0.984;2024-03-02T09:28:16;3;2;
42410;PMS5003;28056;51.112;0.984;2024-03-02T09:30:43;2;2;
42410;PMS5003;28056;51.112;0.984;2024-03-02T09:33:10;1;1;
42410;PMS5003;28056;51.112;0.984;2024-03-02T09:35:38;2;2;
42410;PMS5003;28056;51.112;0.984;2024-03-02T09:38:06;2;1;
42410;PMS5003;28056;51.112;0.984;2024-03-02T09:40:33;3;3;
42410;PMS5003;28056;51.112;0.984;2024-03-02T09:43:00;9;6;
42410;PMS5003;28056;51.112;0.984;2024-03-02T09:45:28;2;1;
42410;PMS5003;28056;51.112;0.984;2024-03-02T09:47:57;2;2;
42410;PMS5003;28056;51.112;0.984;2024-03-02T09:50:25;3;2;
42410;PMS5003;28056;51.112;0.984;2024-03-02T09:52:52;6;2;
42410;PMS5003;28056;51.112;0.984;2024-03-02T09:55:19;6;2;
42410;PMS5003;28056;51.112;0.984;2024-03-02T09:57:48;1;0;
42410;PMS5003;28056;51.112;0.984;2024-03-02T10:00:15;2;2;
42410;PMS5003;28056;51.112;0.984;2024-03-02T10:02:43;2;1;
42410;PMS5003;28056;51.112;0.984;2024-03-02T10:05:11;1;1;
42410;PMS5003;28056;51.112;0.984;2024-03-02T10:07:38;2;2;
42410;PMS5003;28056;51.112;0.984;2024-03-02T10:10:12;5;2;
42410;PMS5003;28056;51.112;0.984;2024-03-02T10:12:40;1;1;
42410;PMS5003;28056;51.112;0.984;2024-03-02T10:15:08;6;2;
42410;PMS5003;28056;51.112;0.984;2024-03-02T10:17:36;3;2;
42410;PMS5003;28056;51.112;0.984;2024-03-02T10:20:21;5;2;
42410;PMS5003;28056;51.112;0.984;2024-03-02T10:22:48;0;0;
42410;PMS5003;28056;51.112;0.984;2024-03-02T10:25:28;2;2;
42410;PMS5003;28056;51.112;0.984;2024-03-02T10:27:57;2;2;
42410;PMS5003;28056;51.112;0.984;2024-03-02T10:30:25;5;1;
42410;PMS5003;28056;51.112;0.984;2024-03-02T10:32:53;2;1;
42410;PMS5003;28056;51.112;0.984;2024-03-02T10:35:21;5;3;
42410;PMS5003;28056;51.112;0.984;2024-03-02T10:37:49;1;1;
42410;PMS5003;28056;51.112;0.984;2024-03-02T10:40:17;1;1;
42410;PMS5003;28056;51.112;0.984;2024-03-02T10:42:48;3;3;
42410;PMS5003;28056;51.112;0.984;2024-03-02T10:45:17;6;3;
42410;PMS5003;28056;51.112;0.984;2024-03-02T10:47:46;5;2;
42410;PMS5003;28056;51.112;0.984;2024-03-02T10:50:14;5;2;
42410;PMS5003;28056;51.112;0.984;2024-03-02T10:52:42;1;1;
42410;PMS5003;28056;51.112;0.984;2024-03-02T10:55:10;2;1;
42410;PMS5003;28056;51.112;0.984;2024-03-02T10:57:40;2;2;
42410;PMS5003;28056;51.112;0.984;2024-03-02T11:00:11;2;0;
42410;PMS5003;28056;51.112;0.984;2024-03-02T11:02:40;2;2;
42410;PMS5003;28056;51.112;0.984;2024-03-02T11:05:13;1;1;
42410;PMS5003;28056;51.112;0.984;2024-03-02T11:07:48;6;2;
42410;PMS5003;28056;51.112;0.984;2024-03-02T11:10:17;2;1;
42410;PMS5003;28056;51.112;0.984;2024-03-02T11:12:48;2;2;
42410;PMS5003;28056;51.112;0.984;2024-03-02T11:15:23;5;2;
42410;PMS5003;28056;51.112;0.984;2024-03-02T11:17:52;5;2;
42410;PMS5003;28056;51.112;0.984;2024-03-02T11:20:20;2;1;
42410;PMS5003;28056;51.112;0.984;2024-03-02T11:22:48;5;2;
42410;PMS5003;28056;51.112;0.984;2024-03-02T11:25:23;5;2;
42410;PMS5003;28056;51.112;0.984;2024-03-02T11:28:06;2;2;
42410;PMS5003;28056;51.112;0.984;2024-03-02T11:30:50;1;1;
42410;PMS5003;28056;51.112;0.984;2024-03-02T11:33:26;1;1;
42410;PMS5003;28056;51.112;0.984;2024-03-02T11:35:58;5;1;
42410;PMS5003;28056;51.112;0.984;2024-03-02T11:38:28;1;1;
42410;PMS5003;28056;51.112;0.984;2024-03-02T11:40:57;9;2;
42410;PMS5003;28056;51.112;0.984;2024-03-02T11:43:27;1;1;
42410;PMS5003;28056;51.112;0.984;2024-03-02T11:45:57;1;1;
42410;PMS5003;28056;51.112;0.984;2024-03-02T11:48:24;2;2;
42410;PMS5003;28056;51.112;0.984;2024-03-02T11:50:52;3;1;
42410;PMS5003;28056;51.112;0.984;2024-03-02T11:53:20;3;1;
42410;PMS5003;28056;51.112;0.984;2024-03-02T11:55:49;2;1;
42410;PMS5003;28056;51.112;0.984;2024-03-02T11:58:16;2;2;
42410;PMS5003;28056;51.112;0.984;2024-03-02T12:00:44;0;0;
42410;PMS5003;28056;51.112;0.984;2024-03-02T12:03:12;1;1;
42410;PMS5003;28056;51.112;0.984;2024-03-02T12:05:40;1;1;
42410;PMS5003;28056;51.112;0.984;2024-03-02T12:08:09;2;1;
42410;PMS5003;28056;51.112;0.984;2024-03-02T12:10:39;1;1;
42410;PMS5003;28056;51.112;0.984;2024-03-02T12:13:07;1;1;
42410;PMS5003;28056;51.112;0.984;2024-03-02T12:15:35;8;3;
42410;PMS5003;28056;51.112;0.984;2024-03-02T12:18:04;6;2;
42410;PMS5003;28056;51.112;0.984;2024-03-02T12:20:32;5;3;
42410;PMS5003;28056;51.112;0.984;2024-03-02T12:23:00;2;2;
42410;PMS5003;28056;51.112;0.984;2024-03-02T12:25:30;3;2;
42410;PMS5003;28056;51.112;0.984;2024-03-02T12:27:59;1;1;
42410;PMS5003;28056;51.112;0.984;2024-03-02T12:30:29;7;1;
42410;PMS5003;28056;51.112;0.984;2024-03-02T12:32:59;3;1;
42410;PMS5003;28056;51.112;0.984;2024-03-02T12:35:26;2;2;
42410;PMS5003;28056;51.112;0.984;2024-03-02T12:37:53;3;2;
42410;PMS5003;28056;51.112;0.984;2024-03-02T12:40:21;6;3;
42410;PMS5003;28056;51.112;0.984;2024-03-02T12:42:49;25;22;
42410;PMS5003;28056;51.112;0.984;2024-03-02T12:45:17;16;15;
42410;PMS5003;28056;51.112;0.984;2024-03-02T12:47:44;5;2;
42410;PMS5003;28056;51.112;0.984;2024-03-02T12:50:12;6;3;
42410;PMS5003;28056;51.112;0.984;2024-03-02T12:52:40;5;2;
42410;PMS5003;28056;51.112;0.984;2024-03-02T12:55:07;12;12;
42410;PMS5003;28056;51.112;0.984;2024-03-02T12:57:36;25;21;
42410;PMS5003;28056;51.112;0.984;2024-03-02T13:00:04;6;3;
42410;PMS5003;28056;51.112;0.984;2024-03-02T13:02:33;6;6;
42410;PMS5003;28056;51.112;0.984;2024-03-02T13:05:02;7;5;
42410;PMS5003;28056;51.112;0.984;2024-03-02T13:07:29;5;2;
42410;PMS5003;28056;51.112;0.984;2024-03-02T13:09:56;6;3;
42410;PMS5003;28056;51.112;0.984;2024-03-02T13:12:24;1;1;
42410;PMS5003;28056;51.112;0.984;2024-03-02T13:14:51;1;1;
42410;PMS5003;28056;51.112;0.984;2024-03-02T13:17:19;3;1;
42410;PMS5003;28056;51.112;0.984;2024-03-02T13:19:55;2;2;
42410;PMS5003;28056;51.112;0.984;2024-03-02T13:22:23;2;2;
42410;PMS5003;28056;51.112;0.984;2024-03-02T13:24:51;2;2;
42410;PMS5003;28056;51.112;0.984;2024-03-02T13:27:20;1;1;
42410;PMS5003;28056;51.112;0.984;2024-03-02T13:29:48;1;1;
42410;PMS5003;28056;51.112;0.984;2024-03-02T13:32:15;0;0;
42410;PMS5003;28056;51.112;0.984;2024-03-02T13:34:43;3;2;
42410;PMS5003;28056;51.112;0.984;2024-03-02T13:37:10;2;1;
42410;PMS5003;28056;51.112;0.984;2024-03-02T13:39:37;2;0;
42410;PMS5003;28056;51.112;0.984;2024-03-02T13:42:04;1;0;
42410;PMS5003;28056;51.112;0.984;2024-03-02T13:44:33;3;1;
42410;PMS5003;28056;51.112;0.984;2024-03-02T13:47:01;1;1;
42410;PMS5003;28056;51.112;0.984;2024-03-02T13:49:29;0;0;
42410;PMS5003;28056;51.112;0.984;2024-03-02T13:51:57;0;0;
42410;PMS5003;28056;51.112;0.984;2024-03-02T13:54:24;1;1;
42410;PMS5003;28056;51.112;0.984;2024-03-02T13:56:51;0;0;
42410;PMS5003;28056;51.112;0.984;2024-03-02T13:59:18;1;1;
42410;PMS5003;28056;51.112;0.984;2024-03-02T14:01:46;0;0;
42410;PMS5003;28056;51.112;0.984;2024-03-02T14:04:13;6;6;
42410;PMS5003;28056;51.112;0.984;2024-03-02T14:06:40;9;9;
42410;PMS5003;28056;51.112;0.984;2024-03-02T14:09:09;11;10;
42410;PMS5003;28056;51.112;0.984;2024-03-02T14:11:36;9;9;
42410;PMS5003;28056;51.112;0.984;2024-03-02T14:14:04;6;5;
42410;PMS5003;28056;51.112;0.984;2024-03-02T14:16:32;3;3;
42410;PMS5003;28056;51.112;0.984;2024-03-02T14:18:59;7;7;
42410;PMS5003;28056;51.112;0.984;2024-03-02T14:21:26;6;6;
42410;PMS5003;28056;51.112;0.984;2024-03-02T14:23:53;6;6;
42410;PMS5003;28056;51.112;0.984;2024-03-02T14:26:20;11;6;
42410;PMS5003;28056;51.112;0.984;2024-03-02T14:28:47;2;2;
42410;PMS5003;28056;51.112;0.984;2024-03-02T14:31:14;2;2;
42410;PMS5003;28056;51.112;0.984;2024-03-02T14:33:42;1;1;
42410;PMS5003;28056;51.112;0.984;2024-03-02T14:36:09;1;1;
42410;PMS5003;28056;51.112;0.984;2024-03-02T14:38:37;1;0;
42410;PMS5003;28056;51.112;0.984;2024-03-02T14:41:05;2;1;
42410;PMS5003;28056;51.112;0.984;2024-03-02T14:43:32;0;0;
42410;PMS5003;28056;51.112;0.984;2024-03-02T14:45:59;0;0;
42410;PMS5003;28056;51.112;0.984;2024-03-02T14:48:27;2;1;
42410;PMS5003;28056;51.112;0.984;2024-03-02T14:50:55;1;1;
42410;PMS5003;28056;51.112;0.984;2024-03-02T14:53:24;3;1;
42410;PMS5003;28056;51.112;0.984;2024-03-02T14:55:51;0;0;
42410;PMS5003;28056;51.112;0.984;2024-03-02T14:58:18;2;2;
42410;PMS5003;28056;51.112;0.984;2024-03-02T15:00:45;1;0;
42410;PMS5003;28056;51.112;0.984;2024-03-02T15:03:13;0;0;
42410;PMS5003;28056;51.112;0.984;2024-03-02T15:05:41;1;1;
42410;PMS5003;28056;51.112;0.984;2024-03-02T15:08:09;0;0;
42410;PMS5003;28056;51.112;0.984;2024-03-02T15:10:36;0;0;
42410;PMS5003;28056;51.112;0.984;2024-03-02T15:13:04;0;0;
42410;PMS5003;28056;51.112;0.984;2024-03-02T15:15:32;0;0;
42410;PMS5003;28056;51.112;0.984;2024-03-02T15:17:59;1;1;
42410;PMS5003;28056;51.112;0.984;2024-03-02T15:20:26;1;1;
42410;PMS5003;28056;51.112;0.984;2024-03-02T15:22:53;1;1;
42410;PMS5003;28056;51.112;0.984;2024-03-02T15:25:21;1;1;
42410;PMS5003;28056;51.112;0.984;2024-03-02T15:27:49;1;1;
42410;PMS5003;28056;51.112;0.984;2024-03-02T15:30:17;0;0;
42410;PMS5003;28056;51.112;0.984;2024-03-02T15:32:44;1;0;
42410;PMS5003;28056;51.112;0.984;2024-03-02T15:35:11;2;1;
42410;PMS5003;28056;51.112;0.984;2024-03-02T15:37:38;0;0;
42410;PMS5003;28056;51.112;0.984;2024-03-02T15:40:07;0;0;
42410;PMS5003;28056;51.112;0.984;2024-03-02T15:42:35;2;0;
42410;PMS5003;28056;51.112;0.984;2024-03-02T15:45:03;0;0;
42410;PMS5003;28056;51.112;0.984;2024-03-02T15:47:30;0;0;
42410;PMS5003;28056;51.112;0.984;2024-03-02T15:49:58;0;0;
42410;PMS5003;28056;51.112;0.984;2024-03-02T15:52:26;2;0;
42410;PMS5003;28056;51.112;0.984;2024-03-02T15:54:54;0;0;
42410;PMS5003;28056;51.112;0.984;2024-03-02T15:57:21;1;1;
42410;PMS5003;28056;51.112;0.984;2024-03-02T15:59:49;1;1;
42410;PMS5003;28056;51.112;0.984;2024-03-02T16:02:16;0;0;
42410;PMS5003;28056;51.112;0.984;2024-03-02T16:04:43;1;1;
42410;PMS5003;28056;51.112;0.984;2024-03-02T16:07:11;0;0;
42410;PMS5003;28056;51.112;0.984;2024-03-02T16:09:39;2;0;
42410;PMS5003;28056;51.112;0.984;2024-03-02T16:12:07;0;0;
42410;PMS5003;28056;51.112;0.984;2024-03-02T16:14:35;0;0;
42410;PMS5003;28056;51.112;0.984;2024-03-02T16:17:03;0;0;
42410;PMS5003;28056;51.112;0.984;2024-03-02T16:19:30;0;0;
42410;PMS5003;28056;51.112;0.984;2024-03-02T16:21:57;2;0;
42410;PMS5003;28056;51.112;0.984;2024-03-02T16:24:24;3;1;
42410;PMS5003;28056;51.112;0.984;2024-03-02T16:26:51;8;6;
42410;PMS5003;28056;51.112;0.984;2024-03-02T16:29:18;6;6;
42410;PMS5003;28056;51.112;0.984;2024-03-02T16:31:45;15;10;
42410;PMS5003;28056;51.112;0.984;2024-03-02T16:34:12;12;10;
42410;PMS5003;28056;51.112;0.984;2024-03-02T16:36:39;19;19;
42410;PMS5003;28056;51.112;0.984;2024-03-02T16:39:07;15;14;
42410;PMS5003;28056;51.112;0.984;2024-03-02T16:41:34;21;14;
42410;PMS5003;28056;51.112;0.984;2024-03-02T16:44:01;7;6;
42410;PMS5003;28056;51.112;0.984;2024-03-02T16:46:28;9;6;
42410;PMS5003;28056;51.112;0.984;2024-03-02T16:48:55;15;14;
42410;PMS5003;28056;51.112;0.984;2024-03-02T16:51:23;3;2;
42410;PMS5003;28056;51.112;0.984;2024-03-02T16:53:50;3;3;
42410;PMS5003;28056;51.112;0.984;2024-03-02T16:56:17;1;1;